Time;durP1;ratioP1;P1;durP2;ratioP2;P2;SDS_P1;SDS_P2;PMS_P1;PMS_P2;Temp;Humidity;BMP_temperature;BMP_pressure;BME280_temperature;BME280_humidity;BME280_pressure;Samples;Min_cycle;Max_cycle;Signal;HPM_P1;HPM_P2
2021/08/24 00:01:15;;;;;;;5.55;2.58;;;;;;;18.14;67.36;101970.66;4990587;28;20133;-96
2021/08/24 00:03:41;;;;;;;5.55;2.10;;;;;;;17.88;68.35;101974.44;4991950;28;20030;-96
2021/08/24 00:06:06;;;;;;;7.32;2.25;;;;;;;17.87;68.56;101967.41;4994420;28;20029;-96
2021/08/24 00:08:34;;;;;;;4.95;2.13;;;;;;;17.96;68.17;101972.06;4989617;28;20027;-96
2021/08/24 00:11:24;;;;;;;4.57;2.00;;;;;;;17.60;69.42;101976.44;4991418;28;20033;-96
2021/08/24 00:14:16;;;;;;;4.95;1.70;;;;;;;17.98;67.93;101980.75;5002253;28;20018;-96
2021/08/24 00:16:44;;;;;;;5.15;1.90;;;;;;;17.67;69.21;101972.34;4965930;28;20449;-96
2021/08/24 00:19:11;;;;;;;5.15;1.58;;;;;;;17.81;69.26;101971.34;4978436;28;20027;-96
2021/08/24 00:21:39;;;;;;;10.00;2.00;;;;;;;17.41;70.96;101977.75;4977453;28;20018;-96
2021/08/24 00:29:29;;;;;;;4.07;1.70;;;;;;;17.60;69.56;101963.16;5323579;22;20049;-96
2021/08/24 00:34:30;;;;;;;4.22;2.15;;;;;;;17.61;69.83;101959.50;5168672;22;20057;-95
2021/08/24 00:36:56;;;;;;;5.45;2.10;;;;;;;17.54;70.79;101977.72;5053898;28;20033;-95
2021/08/24 00:39:22;;;;;;;5.43;2.83;;;;;;;17.55;70.74;101974.09;5052906;28;20021;-95
2021/08/24 00:41:47;;;;;;;6.70;2.20;;;;;;;17.54;70.60;101969.75;5053512;28;20044;-95
2021/08/24 00:44:13;;;;;;;6.28;2.13;;;;;;;17.51;70.65;101959.34;5050262;28;20017;-95
2021/08/24 00:46:43;;;;;;;7.40;2.30;;;;;;;17.47;71.22;101975.63;5052100;28;20032;-96
2021/08/24 00:49:16;;;;;;;4.70;1.90;;;;;;;17.38;71.11;101967.34;5053936;28;20018;-95
2021/08/24 00:51:46;;;;;;;5.63;2.00;;;;;;;17.47;71.42;101965.84;5050033;28;20041;-95
2021/08/24 00:54:21;;;;;;;8.18;2.05;;;;;;;17.34;71.63;101967.69;5046371;28;20029;-95
2021/08/24 00:56:51;;;;;;;11.05;2.42;;;;;;;17.29;72.29;101975.13;5044827;28;20045;-95
2021/08/24 00:59:18;;;;;;;9.80;2.67;;;;;;;17.44;71.60;101974.88;5061268;28;20032;-96
2021/08/24 01:01:44;;;;;;;5.90;2.58;;;;;;;17.34;71.49;101963.22;5050776;28;20025;-96
2021/08/24 01:04:10;;;;;;;9.63;3.28;;;;;;;17.20;72.96;101963.34;5029769;28;20025;-95
2021/08/24 01:06:48;;;;;;;7.07;2.25;;;;;;;17.18;72.84;101966.13;5030377;28;20026;-96
2021/08/24 01:09:45;;;;;;;8.77;3.20;;;;;;;17.15;73.73;101982.25;5071016;28;20025;-96
2021/08/24 01:12:13;;;;;;;5.97;2.42;;;;;;;17.11;74.62;101979.94;5064100;28;20033;-96
2021/08/24 01:14:50;;;;;;;7.68;2.80;;;;;;;16.92;75.27;101991.81;5063982;28;20025;-96
2021/08/24 01:17:21;;;;;;;13.70;2.67;;;;;;;16.92;75.25;101959.16;5039785;28;20022;-96
2021/08/24 01:19:54;;;;;;;10.10;3.17;;;;;;;16.92;76.42;101981.22;5045485;28;20021;-96
2021/08/24 01:23:05;;;;;;;8.82;3.55;;;;;;;16.94;75.72;101962.53;5048682;28;20032;-96
2021/08/24 01:25:54;;;;;;;8.70;2.80;;;;;;;16.99;76.50;101977.19;4992372;28;20034;-96
2021/08/24 01:28:28;;;;;;;7.63;3.05;;;;;;;16.96;76.93;101977.44;5054422;28;20037;-96
2021/08/24 01:31:22;;;;;;;10.98;3.03;;;;;;;16.83;77.26;101955.34;5054666;28;20048;-96
2021/08/24 01:34:18;;;;;;;6.43;2.65;;;;;;;17.03;77.54;101972.53;5055955;28;20029;-96
2021/08/24 01:36:45;;;;;;;10.10;3.67;;;;;;;16.91;78.46;101966.28;5033314;28;20030;-96
2021/08/24 01:39:24;;;;;;;10.43;4.32;;;;;;;17.00;78.98;101967.41;5043525;28;20117;-96
2021/08/24 01:42:13;;;;;;;12.85;5.35;;;;;;;17.09;79.15;101969.44;5039128;28;20029;-96
2021/08/24 01:45:01;;;;;;;9.65;4.25;;;;;;;17.12;79.32;101968.34;5038896;28;20029;-96
2021/08/24 01:47:33;;;;;;;15.02;4.70;;;;;;;17.25;78.92;101985.13;5046555;28;20036;-96
2021/08/24 01:50:23;;;;;;;8.25;5.60;;;;;;;17.11;80.88;101982.59;5051767;28;20032;-96
2021/08/24 01:52:55;;;;;;;13.75;5.32;;;;;;;17.14;80.58;101980.59;5017763;28;20034;-96
2021/08/24 01:55:25;;;;;;;11.30;5.22;;;;;;;17.02;81.70;101982.28;5016753;28;20044;-95
2021/08/24 01:58:00;;;;;;;12.88;5.97;;;;;;;17.15;81.45;101981.41;5026793;28;20028;-96
2021/08/24 02:00:26;;;;;;;11.35;6.30;;;;;;;17.14;80.81;101975.28;5017088;28;20160;-96
2021/08/24 02:02:57;;;;;;;13.35;6.05;;;;;;;17.05;81.32;101973.25;5018663;28;20054;-96
2021/08/24 02:05:58;;;;;;;11.02;5.93;;;;;;;16.91;83.44;101974.22;5017787;28;20018;-96
2021/08/24 02:08:28;;;;;;;11.88;5.63;;;;;;;17.10;81.07;101988.84;4999106;28;20112;-96
2021/08/24 02:10:57;;;;;;;9.50;6.35;;;;;;;17.26;80.71;101994.78;5037216;28;20021;-96
2021/08/24 02:13:27;;;;;;;15.65;6.30;;;;;;;17.36;80.14;102000.28;5038016;28;20080;-96
2021/08/24 02:15:56;;;;;;;9.85;4.93;;;;;;;17.36;79.70;102000.28;5038112;28;20474;-96
2021/08/24 02:18:31;;;;;;;13.52;5.43;;;;;;;17.38;80.09;101996.56;5040868;28;20068;-96
2021/08/24 02:21:03;;;;;;;11.20;4.53;;;;;;;17.35;80.16;101988.81;5037717;28;20033;-95
2021/08/24 02:23:32;;;;;;;7.57;4.40;;;;;;;17.56;78.82;101988.25;5035218;28;20458;-96
2021/08/24 02:26:02;;;;;;;11.85;5.30;;;;;;;17.32;79.93;101983.72;5029090;28;20068;-96
2021/08/24 02:28:32;;;;;;;11.80;4.90;;;;;;;17.55;78.40;101994.50;5029585;28;20017;-96
2021/08/24 02:31:02;;;;;;;10.55;5.22;;;;;;;17.20;80.74;101995.19;5053514;28;20025;-96
2021/08/24 02:33:36;;;;;;;12.73;5.43;;;;;;;17.19;81.05;101983.75;5052553;28;20038;-96
2021/08/24 02:36:03;;;;;;;8.18;4.80;;;;;;;17.38;79.96;101980.63;5041542;28;20390;-96
2021/08/24 02:38:35;;;;;;;10.05;4.72;;;;;;;17.44;79.24;101966.06;5038248;28;20021;-96
2021/08/24 02:41:17;;;;;;;9.20;4.78;;;;;;;17.48;78.29;101977.31;5036062;28;20071;-95
2021/08/24 02:43:51;;;;;;;8.27;4.38;;;;;;;17.50;77.37;101983.38;5035310;28;20026;-96
2021/08/24 02:46:24;;;;;;;11.80;4.88;;;;;;;17.31;79.19;101987.31;5022270;28;20028;-96
2021/08/24 02:49:19;;;;;;;10.60;5.20;;;;;;;17.31;78.47;101979.38;5037295;28;20033;-96
2021/08/24 02:51:47;;;;;;;12.05;5.20;;;;;;;16.97;80.86;101972.97;5044412;28;20034;-96
2021/08/24 02:54:27;;;;;;;10.25;5.53;;;;;;;17.25;80.09;101988.63;5038979;28;20475;-96
2021/08/24 02:56:52;;;;;;;13.25;5.65;;;;;;;17.16;81.38;101977.78;5037778;28;20522;-96
2021/08/24 02:59:17;;;;;;;14.55;5.15;;;;;;;17.46;79.50;101974.78;5028875;28;20018;-96
2021/08/24 03:01:43;;;;;;;9.95;5.22;;;;;;;17.28;80.86;101976.94;5018713;28;20044;-96
2021/08/24 03:04:10;;;;;;;11.80;6.28;;;;;;;17.33;81.09;101985.41;5018579;28;20463;-96
2021/08/24 03:06:40;;;;;;;8.98;5.32;;;;;;;17.29;81.77;101977.78;5016653;28;20044;-95
2021/08/24 03:09:07;;;;;;;12.98;5.47;;;;;;;17.42;80.75;101978.63;5031894;28;20040;-95
2021/08/24 03:11:43;;;;;;;13.38;5.45;;;;;;;17.57;79.99;101987.25;5037859;28;20029;-95
2021/08/24 03:14:19;;;;;;;9.15;4.78;;;;;;;17.58;79.57;101981.84;5035603;28;20537;-95
2021/08/24 03:16:54;;;;;;;9.95;5.05;;;;;;;17.59;78.82;101970.25;5035302;28;20506;-95
2021/08/24 03:19:24;;;;;;;19.65;5.95;;;;;;;17.53;78.97;101985.78;5034447;28;20112;-95
2021/08/24 03:21:52;;;;;;;12.88;5.00;;;;;;;17.37;79.38;101972.78;5034540;28;20042;-96
2021/08/24 03:24:18;;;;;;;10.75;4.85;;;;;;;17.47;79.60;101988.91;5035134;28;20480;-96
2021/08/24 03:26:46;;;;;;;7.47;5.10;;;;;;;17.43;79.37;101981.13;5039185;28;20030;-96
2021/08/24 03:29:21;;;;;;;15.82;5.82;;;;;;;17.41;78.94;101984.88;5055627;28;20021;-96
2021/08/24 03:31:56;;;;;;;8.05;4.93;;;;;;;17.39;78.59;101984.97;5057147;28;20029;-96
2021/08/24 03:34:22;;;;;;;10.20;5.25;;;;;;;17.21;80.77;101986.28;5037387;28;20034;-95
2021/08/24 03:36:48;;;;;;;13.30;5.75;;;;;;;17.46;79.13;101985.41;5042608;28;20021;-96
2021/08/24 03:39:14;;;;;;;14.40;5.47;;;;;;;17.47;78.73;101983.59;5038764;28;20097;-96
2021/08/24 03:41:39;;;;;;;9.10;5.60;;;;;;;17.29;79.91;101983.94;5039507;28;20025;-95
2021/08/24 03:44:05;;;;;;;6.95;4.78;;;;;;;17.57;78.03;101982.78;5036597;28;20029;-95
2021/08/24 03:46:30;;;;;;;13.40;5.63;;;;;;;17.64;77.25;101972.59;5033982;28;20525;-96
2021/08/24 03:48:56;;;;;;;11.80;5.45;;;;;;;17.55;77.51;101983.88;5020859;28;20020;-95
2021/08/24 03:51:21;;;;;;;7.88;5.50;;;;;;;17.58;77.50;101983.66;5014073;28;20447;-95
2021/08/24 03:53:46;;;;;;;11.05;5.25;;;;;;;17.39;78.42;101971.69;5014831;28;20021;-96
2021/08/24 03:56:12;;;;;;;16.05;5.38;;;;;;;17.50;78.79;101976.25;5014229;28;20040;-95
2021/08/24 03:58:38;;;;;;;14.85;5.65;;;;;;;17.47;79.21;101975.63;5022698;28;20029;-96
2021/08/24 04:01:14;;;;;;;12.15;6.07;;;;;;;17.58;78.54;101975.69;5033441;28;20029;-96
2021/08/24 04:03:39;;;;;;;8.88;5.50;;;;;;;17.58;78.69;101983.66;5032830;28;20028;-96
2021/08/24 04:06:05;;;;;;;9.35;5.32;;;;;;;17.58;78.84;101962.41;5033458;28;20124;-96
2021/08/24 04:08:30;;;;;;;14.45;5.88;;;;;;;17.55;78.94;101954.66;5044045;28;20041;-96
2021/08/24 04:10:56;;;;;;;11.98;5.95;;;;;;;17.55;78.99;101955.50;5057318;28;20116;-96
2021/08/24 04:13:22;;;;;;;16.42;5.88;;;;;;;17.72;77.59;101969.38;5053215;28;20025;-95
2021/08/24 04:15:48;;;;;;;13.30;5.70;;;;;;;17.80;77.32;101957.22;5055569;28;20095;-96
2021/08/24 04:18:13;;;;;;;9.80;5.50;;;;;;;17.73;77.65;101961.28;5054285;28;20475;-96
2021/08/24 04:20:43;;;;;;;16.17;6.78;;;;;;;17.75;77.23;101959.38;5034295;28;20061;-95
2021/08/24 04:23:13;;;;;;;13.65;6.03;;;;;;;17.78;77.36;101966.25;5036531;28;20025;-95
2021/08/24 04:25:38;;;;;;;9.93;4.97;;;;;;;17.75;76.95;101962.03;5038517;28;20546;-95
2021/08/24 04:28:03;;;;;;;12.00;5.18;;;;;;;17.51;77.84;101956.69;5037725;28;20189;-96
2021/08/24 04:30:29;;;;;;;7.40;5.47;;;;;;;17.67;77.08;101959.06;5034056;28;20029;-96
2021/08/24 04:32:55;;;;;;;9.70;5.40;;;;;;;17.51;77.56;101961.16;5035191;28;20052;-96
2021/08/24 04:35:20;;;;;;;10.15;4.75;;;;;;;17.60;76.86;101971.13;5035760;28;20041;-96
2021/08/24 04:37:46;;;;;;;13.57;5.13;;;;;;;17.71;76.01;101970.31;5033736;28;20088;-96
2021/08/24 04:40:12;;;;;;;8.10;5.25;;;;;;;17.58;76.86;101975.69;5036178;28;20021;-95
2021/08/24 04:42:37;;;;;;;7.75;5.15;;;;;;;17.76;75.75;101974.34;5036945;28;20035;-96
2021/08/24 04:45:04;;;;;;;9.90;4.68;;;;;;;17.72;75.37;101974.69;5037282;28;20021;-95
2021/08/24 04:47:30;;;;;;;9.05;4.65;;;;;;;17.72;75.01;101972.88;5040725;28;20025;-95
2021/08/24 04:49:55;;;;;;;6.30;4.45;;;;;;;17.69;75.10;101975.72;5055292;28;20097;-96
2021/08/24 04:52:21;;;;;;;11.88;5.47;;;;;;;17.52;76.35;101984.09;5061099;28;20055;-96
2021/08/24 04:54:46;;;;;;;7.85;4.80;;;;;;;17.41;76.87;101982.22;5058327;28;20036;-95
2021/08/24 04:57:12;;;;;;;7.45;5.20;;;;;;;17.54;75.87;101984.84;5024917;28;20053;-96
2021/08/24 04:59:37;;;;;;;13.38;5.28;;;;;;;17.51;75.73;101982.41;5032998;28;20028;-96
2021/08/24 05:02:03;;;;;;;9.70;5.35;;;;;;;17.35;77.23;101982.66;5036752;28;20025;-96
2021/08/24 05:04:28;;;;;;;12.98;5.75;;;;;;;17.42;76.32;101973.31;5045381;28;20021;-96
2021/08/24 05:07:05;;;;;;;13.05;5.75;;;;;;;17.37;77.13;101984.22;5057074;28;20037;-96
2021/08/24 05:09:42;;;;;;;12.00;5.00;;;;;;;17.32;76.92;101994.34;5061009;28;20037;-96
2021/08/24 05:12:24;;;;;;;7.97;4.95;;;;;;;17.25;77.25;101996.56;5074710;28;20009;-96
2021/08/24 05:14:50;;;;;;;8.93;5.05;;;;;;;17.22;77.46;101993.31;5050493;28;20029;-96
2021/08/24 05:17:15;;;;;;;8.85;5.07;;;;;;;17.25;77.68;101998.38;5036924;28;20030;-96
2021/08/24 05:19:40;;;;;;;12.57;5.53;;;;;;;17.27;77.48;101998.28;5037156;28;20044;-96
2021/08/24 05:22:06;;;;;;;9.70;5.97;;;;;;;17.27;78.39;102000.94;5034307;28;20483;-96
2021/08/24 05:24:34;;;;;;;13.57;5.82;;;;;;;17.28;78.35;102003.50;5033602;28;20089;-96
2021/08/24 05:26:59;;;;;;;11.70;5.13;;;;;;;17.34;77.76;102002.22;5034866;28;20021;-96
2021/08/24 05:29:25;;;;;;;11.30;5.85;;;;;;;17.36;77.50;102005.59;5039800;28;20116;-96
2021/08/24 05:31:50;;;;;;;10.38;5.90;;;;;;;17.36;77.70;101995.81;5035580;28;20097;-95
2021/08/24 05:34:16;;;;;;;12.32;5.60;;;;;;;17.33;77.91;102006.66;5014556;28;20037;-96
2021/08/24 05:36:41;;;;;;;6.90;5.10;;;;;;;17.42;77.39;102007.81;5013190;28;20105;-95
2021/08/24 05:39:06;;;;;;;12.13;5.50;;;;;;;17.45;76.69;102005.78;5026162;28;20026;-95
2021/08/24 05:41:32;;;;;;;12.15;5.88;;;;;;;17.40;76.61;102009.75;5036162;28;20040;-95
2021/08/24 05:43:57;;;;;;;11.85;5.82;;;;;;;17.33;77.05;102011.97;5035864;28;20022;-95
2021/08/24 05:46:22;;;;;;;12.23;5.50;;;;;;;17.45;76.63;102004.94;5034307;28;20021;-96
2021/08/24 05:48:48;;;;;;;12.23;5.50;;;;;;;17.45;76.21;102008.41;5035926;28;20029;-95
2021/08/24 05:51:19;;;;;;;11.90;5.15;;;;;;;17.43;76.26;102007.69;5032204;28;20075;-95
2021/08/24 05:53:45;;;;;;;11.02;5.70;;;;;;;17.29;76.85;102007.81;5031646;28;20026;-94
2021/08/24 05:56:13;;;;;;;8.82;6.20;;;;;;;17.25;77.18;102003.69;5030555;28;20021;-94
2021/08/24 05:58:38;;;;;;;8.27;5.75;;;;;;;17.30;76.86;102017.50;5030933;28;20037;-94
2021/08/24 06:01:05;;;;;;;10.05;6.30;;;;;;;17.23;77.28;102019.72;5048425;28;20145;-93
2021/08/24 06:03:31;;;;;;;11.10;5.90;;;;;;;17.28;76.87;102026.50;5028793;28;20059;-95
2021/08/24 06:05:58;;;;;;;11.02;5.60;;;;;;;17.29;77.01;102021.09;5015635;28;20022;-93
2021/08/24 06:08:23;;;;;;;13.23;6.35;;;;;;;17.29;77.76;102026.41;5016724;28;20030;-94
2021/08/24 06:10:49;;;;;;;14.30;5.85;;;;;;;17.29;77.45;102020.25;5037956;28;20056;-95
2021/08/24 06:13:14;;;;;;;9.73;5.65;;;;;;;17.49;76.86;102018.84;5039842;28;20025;-93
2021/08/24 06:15:40;;;;;;;8.55;5.75;;;;;;;17.51;77.07;102012.44;5038548;28;20035;-93
2021/08/24 06:18:05;;;;;;;7.93;5.22;;;;;;;17.55;76.63;102011.28;5034760;28;20029;-96
2021/08/24 06:20:30;;;;;;;11.88;6.22;;;;;;;17.69;75.59;102006.78;5035686;28;20044;-95
2021/08/24 06:22:56;;;;;;;10.63;5.97;;;;;;;17.83;75.09;102010.16;5033527;28;20034;-96
2021/08/24 06:25:22;;;;;;;12.75;5.65;;;;;;;17.86;75.23;102016.22;5031989;28;20414;-95
2021/08/24 06:27:50;;;;;;;10.75;6.10;;;;;;;17.81;75.71;102008.53;5033896;28;20087;-95
2021/08/24 06:30:16;;;;;;;10.40;5.55;;;;;;;17.96;74.77;102012.75;5022309;28;20021;-91
2021/08/24 06:33:01;;;;;;;10.60;5.50;;;;;;;18.10;73.77;102009.06;5034157;28;20040;-94
2021/08/24 06:35:27;;;;;;;9.38;5.88;;;;;;;18.17;73.01;102007.66;5028972;28;20046;-94
2021/08/24 06:37:52;;;;;;;10.73;5.57;;;;;;;18.12;73.00;102015.13;5027647;28;20029;-94
2021/08/24 06:40:18;;;;;;;13.15;5.78;;;;;;;18.29;72.24;102021.00;5034101;28;20060;-93
2021/08/24 06:42:53;;;;;;;8.80;5.78;;;;;;;18.28;72.32;102013.97;5035446;28;20541;-93
2021/08/24 06:45:25;;;;;;;6.43;4.88;;;;;;;18.56;71.15;102013.59;5027010;28;20419;-96
2021/08/24 06:47:51;;;;;;;10.80;5.57;;;;;;;18.60;71.13;102009.75;5019589;28;20113;-94
2021/08/24 06:50:18;;;;;;;14.18;6.20;;;;;;;18.57;71.05;101999.31;5020541;28;20043;-95
2021/08/24 06:52:43;;;;;;;10.35;5.85;;;;;;;18.58;70.95;102006.34;5014398;28;20030;-96
2021/08/24 06:55:09;;;;;;;12.23;6.13;;;;;;;18.77;70.51;102010.25;5029078;28;20022;-94
2021/08/24 06:57:39;;;;;;;9.60;6.05;;;;;;;18.84;69.83;102008.84;5032785;28;20032;-93
2021/08/24 07:00:07;;;;;;;9.80;6.68;;;;;;;18.51;70.55;102007.78;5021077;28;20060;-91
2021/08/24 07:02:32;;;;;;;9.25;5.85;;;;;;;18.77;70.62;102010.25;5022305;28;20111;-91
2021/08/24 07:04:58;;;;;;;13.10;6.05;;;;;;;19.21;68.24;102004.16;5018960;28;20033;-92
2021/08/24 07:07:23;;;;;;;8.90;5.03;;;;;;;20.01;66.32;102000.34;5022498;28;20033;-93
2021/08/24 07:09:49;;;;;;;8.80;5.00;;;;;;;20.20;64.72;101996.16;5020131;28;20422;-92
2021/08/24 07:12:15;;;;;;;7.20;4.90;;;;;;;21.47;61.54;101996.88;5019363;28;20022;-92
2021/08/24 07:14:40;;;;;;;9.00;4.28;;;;;;;22.12;57.49;101987.38;5023058;28;20079;-94
2021/08/24 07:17:05;;;;;;;6.68;3.47;;;;;;;22.92;55.93;101995.13;5022225;28;20114;-92
2021/08/24 07:19:31;;;;;;;9.35;3.78;;;;;;;23.16;54.94;101998.19;5030278;28;20021;-93
2021/08/24 07:21:56;;;;;;;8.23;3.15;;;;;;;23.97;53.07;102006.44;5022435;28;20106;-90
2021/08/24 07:24:22;;;;;;;8.38;3.55;;;;;;;24.42;51.11;102009.00;5026515;28;20029;-92
2021/08/24 07:26:49;;;;;;;8.07;3.10;;;;;;;24.35;50.72;102000.75;5026820;28;20040;-93
2021/08/24 07:29:14;;;;;;;5.57;2.47;;;;;;;24.92;49.76;102013.72;5033368;28;20022;-92
2021/08/24 07:31:40;;;;;;;4.40;2.53;;;;;;;25.35;47.71;102013.78;5032473;28;20040;-92
2021/08/24 07:34:06;;;;;;;5.22;2.38;;;;;;;25.44;47.92;102007.44;5031404;28;20576;-93
2021/08/24 07:36:32;;;;;;;5.03;2.42;;;;;;;26.02;45.79;102008.41;5013289;28;20022;-93
2021/08/24 07:38:57;;;;;;;10.13;2.53;;;;;;;25.39;46.84;102019.66;5021004;28;20022;-93
2021/08/24 07:41:23;;;;;;;4.40;2.00;;;;;;;25.25;47.86;102016.59;5031784;28;20043;-92
2021/08/24 07:43:49;;;;;;;6.05;2.50;;;;;;;25.43;47.47;102011.09;5013998;28;20022;-92
2021/08/24 07:46:14;;;;;;;7.53;3.15;;;;;;;25.22;47.41;102014.25;5024879;28;20091;-93
2021/08/24 07:48:40;;;;;;;8.00;2.75;;;;;;;25.83;46.97;102001.47;5026919;28;20029;-92
2021/08/24 07:51:05;;;;;;;4.32;2.40;;;;;;;26.44;46.10;102023.56;5032361;28;20053;-92
2021/08/24 07:53:31;;;;;;;5.85;2.28;;;;;;;26.91;44.25;102008.50;5032588;28;20068;-92
2021/08/24 07:55:57;;;;;;;5.60;2.38;;;;;;;26.54;44.09;102014.44;5031279;28;20026;-93
2021/08/24 07:58:22;;;;;;;4.60;2.10;;;;;;;26.99;42.36;102013.00;5026597;28;20018;-93
2021/08/24 08:00:48;;;;;;;4.05;2.03;;;;;;;26.42;43.72;102022.03;5022594;28;20041;-93
2021/08/24 08:03:13;;;;;;;7.15;2.28;;;;;;;26.33;44.01;102023.06;5032064;28;20026;-92
2021/08/24 08:05:39;;;;;;;7.60;2.42;;;;;;;26.28;44.46;102026.22;5031334;28;20135;-91
2021/08/24 08:08:04;;;;;;;4.78;2.35;;;;;;;26.75;43.80;102011.25;5027913;28;20040;-92
2021/08/24 08:10:30;;;;;;;6.60;2.22;;;;;;;26.69;43.54;102012.75;5031476;28;20033;-92
2021/08/24 08:12:56;;;;;;;10.60;1.65;;;;;;;27.68;42.05;102005.94;5032319;28;20454;-91
2021/08/24 08:15:21;;;;;;;4.78;1.60;;;;;;;27.83;41.34;102005.19;5031945;28;20028;-91
2021/08/24 08:17:46;;;;;;;6.97;1.77;;;;;;;28.54;40.79;102005.00;5032508;28;20040;-93
2021/08/24 08:20:13;;;;;;;5.97;1.52;;;;;;;28.86;39.63;102001.09;5031569;28;20033;-92
2021/08/24 08:22:39;;;;;;;4.20;2.00;;;;;;;28.71;39.35;102005.66;5032583;28;20033;-92
2021/08/24 08:25:06;;;;;;;7.88;1.63;;;;;;;29.32;38.86;102002.75;5030372;28;20029;-93
2021/08/24 08:27:32;;;;;;;7.07;1.77;;;;;;;29.26;37.53;102002.47;5025330;28;20031;-92
2021/08/24 08:29:57;;;;;;;3.60;1.63;;;;;;;29.37;38.05;101997.63;5029795;28;20402;-92
2021/08/24 08:32:26;;;;;;;4.50;1.75;;;;;;;30.06;37.42;102007.94;5033322;28;20076;-93
2021/08/24 08:34:52;;;;;;;5.78;2.38;;;;;;;30.61;36.68;102006.28;5034752;28;20083;-92
2021/08/24 08:37:18;;;;;;;1.77;0.88;;;;;;;31.41;35.30;102009.41;5035664;28;20030;-92
2021/08/24 08:39:43;;;;;;;6.78;2.17;;;;;;;31.76;34.32;102000.34;5039021;28;20040;-91
2021/08/24 08:42:31;;;;;;;5.40;1.60;;;;;;;32.26;34.11;102002.69;5037462;28;20037;-91
2021/08/24 08:45:06;;;;;;;4.05;1.20;;;;;;;32.54;32.58;101999.72;5020731;28;20044;-93
2021/08/24 08:48:00;;;;;;;5.43;1.95;;;;;;;32.55;32.46;101996.81;5039579;28;20029;-93
2021/08/24 08:50:44;;;;;;;5.95;1.20;;;;;;;32.84;31.76;101983.78;5024572;28;20029;-93
2021/08/24 08:53:10;;;;;;;3.60;1.17;;;;;;;32.58;31.54;101985.53;5036469;28;20103;-92
2021/08/24 08:55:48;;;;;;;3.30;1.20;;;;;;;32.10;33.05;101987.63;5037779;28;20435;-92
2021/08/24 08:58:32;;;;;;;5.20;1.38;;;;;;;32.24;32.96;101989.28;5038914;28;20033;-91
2021/08/24 09:01:06;;;;;;;5.10;1.40;;;;;;;32.98;31.66;101984.56;5035892;28;20075;-93
2021/08/24 09:03:52;;;;;;;3.85;1.02;;;;;;;32.66;31.63;101997.22;5029626;28;20037;-91
2021/08/24 09:06:20;;;;;;;4.82;1.63;;;;;;;33.04;31.48;101994.59;5025676;28;20105;-92
2021/08/24 09:08:46;;;;;;;4.30;1.25;;;;;;;33.72;31.10;101994.03;5034648;28;20108;-93
2021/08/24 09:11:12;;;;;;;4.43;1.27;;;;;;;33.28;31.14;101984.03;5045484;28;20503;-91
2021/08/24 09:13:52;;;;;;;6.85;1.63;;;;;;;32.47;31.66;101994.28;5039766;28;20037;-92
2021/08/24 09:16:29;;;;;;;2.93;1.27;;;;;;;32.93;30.90;101997.97;5037174;28;20036;-92
2021/08/24 09:19:08;;;;;;;9.73;1.77;;;;;;;32.75;31.45;101996.75;5020433;28;20034;-92
2021/08/24 09:21:40;;;;;;;6.50;1.60;;;;;;;32.69;31.67;101996.78;5025307;28;20112;-90
2021/08/24 09:24:27;;;;;;;7.45;1.50;;;;;;;33.45;31.47;101992.50;5037059;28;20032;-92
2021/08/24 09:26:53;;;;;;;4.13;1.40;;;;;;;33.49;31.04;102002.78;5037132;28;20045;-92
2021/08/24 09:29:22;;;;;;;3.53;1.30;;;;;;;33.50;30.78;101998.97;5040003;28;20017;-93
2021/08/24 09:31:48;;;;;;;3.47;1.13;;;;;;;33.63;31.06;102000.81;5029609;28;20041;-92
2021/08/24 09:34:16;;;;;;;4.18;1.23;;;;;;;33.84;31.38;101998.78;5026157;28;20033;-92
2021/08/24 09:36:42;;;;;;;4.07;1.40;;;;;;;33.84;30.50;102002.34;5018952;28;20049;-93
2021/08/24 09:39:08;;;;;;;7.82;1.60;;;;;;;32.95;31.10;102001.31;5012697;28;20025;-92
2021/08/24 09:41:38;;;;;;;4.05;1.50;;;;;;;33.02;31.40;101999.41;5026499;28;20040;-93
2021/08/24 09:44:24;;;;;;;4.80;1.20;;;;;;;32.97;31.59;102000.03;5035202;28;20030;-94
2021/08/24 09:47:01;;;;;;;3.50;1.02;;;;;;;33.84;30.84;101999.59;5035534;28;20595;-93
2021/08/24 09:49:37;;;;;;;4.55;1.13;;;;;;;34.30;31.08;102003.03;5036389;28;20044;-93
2021/08/24 09:52:10;;;;;;;2.92;1.15;;;;;;;34.53;29.88;101997.75;5021612;28;20101;-93
2021/08/24 09:54:42;;;;;;;4.95;1.05;;;;;;;34.79;30.06;102000.47;5015651;28;20076;-93
2021/08/24 09:57:10;;;;;;;5.18;1.27;;;;;;;34.02;29.48;102006.19;5031341;28;20492;-93
2021/08/24 09:59:40;;;;;;;6.28;1.38;;;;;;;33.54;30.94;102008.38;5014738;28;20041;-93
2021/08/24 10:02:42;;;;;;;5.27;1.53;;;;;;;32.97;31.18;102005.47;5034341;28;20617;-93
2021/08/24 10:05:10;;;;;;;;;;;;;;;32.49;31.33;102003.06;5034897;28;20037;-93
2021/08/24 10:07:37;;;;;;;4.40;1.35;;;;;;;32.07;32.52;102004.34;5017397;28;19913;-94
2021/08/24 10:10:24;;;;;;;6.07;1.45;;;;;;;33.14;31.88;102000.44;5034985;28;20025;-93
2021/08/24 10:12:53;;;;;;;4.95;1.17;;;;;;;34.00;30.52;102000.94;5035746;28;20129;-93
2021/08/24 10:15:27;;;;;;;5.90;1.90;;;;;;;34.14;29.72;102002.56;5034971;28;20022;-93
2021/08/24 10:18:00;;;;;;;7.40;2.53;;;;;;;34.12;29.19;102001.88;5034720;28;20061;-94
2021/08/24 10:20:37;;;;;;;4.65;1.70;;;;;;;34.92;29.35;102000.31;5033779;28;20029;-93
2021/08/24 10:23:20;;;;;;;5.03;1.33;;;;;;;33.50;29.41;101998.16;5029139;28;20029;-94
2021/08/24 10:25:51;;;;;;;5.78;1.17;;;;;;;33.47;29.88;101993.13;5029223;28;20483;-94
2021/08/24 10:28:23;;;;;;;5.95;1.73;;;;;;;33.14;30.56;101991.44;5034317;28;20037;-93
2021/08/24 10:30:59;;;;;;;2.88;1.52;;;;;;;33.13;30.95;101993.31;5033262;28;20108;-94
2021/08/24 10:33:35;;;;;;;3.72;1.15;;;;;;;33.91;30.78;101981.34;5032575;28;20476;-94
2021/08/24 10:36:06;;;;;;;5.38;1.48;;;;;;;33.28;30.13;101975.88;5034552;28;20031;-94
2021/08/24 10:38:40;;;;;;;4.82;1.35;;;;;;;33.99;31.12;101982.94;5034939;28;20113;-93
2021/08/24 10:41:22;;;;;;;6.07;1.63;;;;;;;33.87;28.92;101976.53;5034016;28;20079;-95
2021/08/24 10:43:55;;;;;;;5.57;1.80;;;;;;;34.22;29.08;101985.06;5034226;28;20483;-92
2021/08/24 10:46:21;;;;;;;6.50;1.60;;;;;;;34.01;28.32;101978.09;5034659;28;20033;-93
2021/08/24 10:48:46;;;;;;;5.55;2.13;;;;;;;32.55;30.12;101974.22;5034494;28;20018;-92
2021/08/24 10:51:45;;;;;;;3.58;1.42;;;;;;;33.38;30.10;101971.59;5034810;28;20049;-92
2021/08/24 10:54:40;;;;;;;9.80;2.35;;;;;;;33.50;29.50;101971.75;5030913;28;20271;-94
2021/08/24 10:57:22;;;;;;;4.18;1.48;;;;;;;31.93;30.87;101979.03;5023867;28;20025;-93
2021/08/24 11:00:10;;;;;;;5.72;1.75;;;;;;;31.85;31.00;101985.50;5032048;28;20032;-93
2021/08/24 11:02:44;;;;;;;5.80;1.88;;;;;;;31.28;31.91;101984.09;5033942;28;20171;-92
2021/08/24 11:05:21;;;;;;;4.53;1.45;;;;;;;30.76;33.23;101976.34;5032347;28;20390;-92
2021/08/24 11:08:01;;;;;;;5.47;1.52;;;;;;;30.58;33.64;101973.31;5033608;28;20028;-92
2021/08/24 11:11:11;;;;;;;4.30;1.35;;;;;;;31.65;32.58;101958.31;5033954;28;20040;-92
2021/08/24 11:13:46;;;;;;;2.58;1.10;;;;;;;32.68;31.20;101959.75;5023072;28;20376;-93
2021/08/24 11:16:31;;;;;;;3.95;1.10;;;;;;;33.29;29.74;101964.75;5015615;28;20076;-92
2021/08/24 11:19:07;;;;;;;3.05;1.40;;;;;;;33.78;28.77;101962.38;5015019;28;20030;-93
2021/08/24 11:21:57;;;;;;;3.40;1.15;;;;;;;33.48;29.68;101960.25;5014034;28;20118;-93
2021/08/24 11:24:47;;;;;;;5.68;2.08;;;;;;;33.03;29.59;101960.25;5012378;28;20491;-93
2021/08/24 11:27:36;;;;;;;3.63;1.30;;;;;;;33.30;29.14;101949.28;5008086;28;20126;-93
2021/08/24 11:30:24;;;;;;;3.95;1.30;;;;;;;33.50;30.00;101960.03;5013936;28;20040;-94
2021/08/24 11:32:57;;;;;;;3.15;1.02;;;;;;;33.98;28.83;101954.03;5013897;28;20040;-93
2021/08/24 11:35:33;;;;;;;2.20;1.13;;;;;;;32.79;30.26;101959.94;5013872;28;20109;-93
2021/08/24 11:38:04;;;;;;;9.30;1.55;;;;;;;33.25;29.37;101957.25;5014240;28;20026;-92
2021/08/24 11:41:02;;;;;;;5.45;1.30;;;;;;;33.88;28.00;101954.53;5014212;28;20025;-93
2021/08/24 11:43:39;;;;;;;11.68;1.80;;;;;;;33.81;27.82;101952.91;5024114;28;20025;-93
2021/08/24 11:46:17;;;;;;;3.22;1.50;;;;;;;34.16;28.15;101948.66;5033793;28;20491;-92
2021/08/24 11:48:46;;;;;;;3.75;1.33;;;;;;;34.17;28.69;101950.31;5033520;28;20017;-93